sensor_id;sensor_type;location;lat;lon;timestamp;temperature;humidity
11399;DHT22;5755;48.116;11.608;2022-11-03T00:00:33;7.00;99.90
11399;DHT22;5755;48.116;11.608;2022-11-03T00:03:00;6.90;99.90
11399;DHT22;5755;48.116;11.608;2022-11-03T00:05:27;6.90;99.90
11399;DHT22;5755;48.116;11.608;2022-11-03T00:08:13;6.90;99.90
11399;DHT22;5755;48.116;11.608;2022-11-03T00:10:40;7.00;99.90
11399;DHT22;5755;48.116;11.608;2022-11-03T00:13:07;7.00;99.90
11399;DHT22;5755;48.116;11.608;2022-11-03T00:15:34;7.10;99.90
11399;DHT22;5755;48.116;11.608;2022-11-03T00:18:01;7.00;99.90
11399;DHT22;5755;48.116;11.608;2022-11-03T00:20:28;6.90;99.90
11399;DHT22;5755;48.116;11.608;2022-11-03T00:22:58;6.90;99.90
11399;DHT22;5755;48.116;11.608;2022-11-03T00:28:50;6.90;99.90
11399;DHT22;5755;48.116;11.608;2022-11-03T00:31:18;6.90;99.90
11399;DHT22;5755;48.116;11.608;2022-11-03T00:33:59;6.90;99.90
11399;DHT22;5755;48.116;11.608;2022-11-03T00:36:46;6.90;99.90
11399;DHT22;5755;48.116;11.608;2022-11-03T00:39:13;6.90;99.90
11399;DHT22;5755;48.116;11.608;2022-11-03T00:41:40;6.80;99.90
11399;DHT22;5755;48.116;11.608;2022-11-03T00:44:11;6.80;99.90
11399;DHT22;5755;48.116;11.608;2022-11-03T00:46:38;6.80;99.90
11399;DHT22;5755;48.116;11.608;2022-11-03T00:49:05;6.80;99.90
11399;DHT22;5755;48.116;11.608;2022-11-03T00:51:32;6.80;99.90
11399;DHT22;5755;48.116;11.608;2022-11-03T00:54:02;6.80;99.90
11399;DHT22;5755;48.116;11.608;2022-11-03T00:56:31;6.90;99.90
11399;DHT22;5755;48.116;11.608;2022-11-03T00:58:59;6.90;99.90
11399;DHT22;5755;48.116;11.608;2022-11-03T01:01:31;7.00;99.90
11399;DHT22;5755;48.116;11.608;2022-11-03T01:04:04;7.00;99.90
11399;DHT22;5755;48.116;11.608;2022-11-03T01:06:50;7.10;99.90
11399;DHT22;5755;48.116;11.608;2022-11-03T01:09:19;7.00;99.90
11399;DHT22;5755;48.116;11.608;2022-11-03T01:11:56;7.00;99.90
11399;DHT22;5755;48.116;11.608;2022-11-03T01:14:25;6.90;99.90
11399;DHT22;5755;48.116;11.608;2022-11-03T01:16:54;6.90;99.90
11399;DHT22;5755;48.116;11.608;2022-11-03T01:19:22;6.90;99.90
11399;DHT22;5755;48.116;11.608;2022-11-03T01:21:52;6.90;99.90
11399;DHT22;5755;48.116;11.608;2022-11-03T01:24:19;6.80;99.90
11399;DHT22;5755;48.116;11.608;2022-11-03T01:26:47;6.80;99.90
11399;DHT22;5755;48.116;11.608;2022-11-03T01:29:14;6.80;99.90
11399;DHT22;5755;48.116;11.608;2022-11-03T01:31:41;6.80;99.90
11399;DHT22;5755;48.116;11.608;2022-11-03T01:34:13;6.70;99.90
11399;DHT22;5755;48.116;11.608;2022-11-03T01:36:41;6.70;99.90
11399;DHT22;5755;48.116;11.608;2022-11-03T01:39:09;6.70;99.90
11399;DHT22;5755;48.116;11.608;2022-11-03T01:41:41;6.60;99.90
11399;DHT22;5755;48.116;11.608;2022-11-03T01:44:29;6.60;99.90
11399;DHT22;5755;48.116;11.608;2022-11-03T01:47:09;6.50;99.90
11399;DHT22;5755;48.116;11.608;2022-11-03T01:49:43;6.50;99.90
11399;DHT22;5755;48.116;11.608;2022-11-03T01:52:15;6.50;99.90
11399;DHT22;5755;48.116;11.608;2022-11-03T01:54:47;6.40;99.90
11399;DHT22;5755;48.116;11.608;2022-11-03T01:57:19;6.40;99.90
11399;DHT22;5755;48.116;11.608;2022-11-03T01:59:47;6.40;99.90
11399;DHT22;5755;48.116;11.608;2022-11-03T02:02:15;6.40;99.90
11399;DHT22;5755;48.116;11.608;2022-11-03T02:04:43;6.30;99.90
11399;DHT22;5755;48.116;11.608;2022-11-03T02:07:15;6.30;99.90
11399;DHT22;5755;48.116;11.608;2022-11-03T02:09:42;6.40;99.90
11399;DHT22;5755;48.116;11.608;2022-11-03T02:12:10;6.40;99.90
11399;DHT22;5755;48.116;11.608;2022-11-03T02:14:41;6.40;99.90
11399;DHT22;5755;48.116;11.608;2022-11-03T02:17:11;6.40;99.90
11399;DHT22;5755;48.116;11.608;2022-11-03T02:19:43;6.40;99.90
11399;DHT22;5755;48.116;11.608;2022-11-03T02:22:29;6.40;99.90
11399;DHT22;5755;48.116;11.608;2022-11-03T02:25:04;6.40;99.90
11399;DHT22;5755;48.116;11.608;2022-11-03T02:27:33;6.30;99.90
11399;DHT22;5755;48.116;11.608;2022-11-03T02:30:00;6.30;99.90
11399;DHT22;5755;48.116;11.608;2022-11-03T02:32:30;6.30;99.90
11399;DHT22;5755;48.116;11.608;2022-11-03T02:35:01;6.30;99.90
11399;DHT22;5755;48.116;11.608;2022-11-03T02:37:32;6.40;99.90
11399;DHT22;5755;48.116;11.608;2022-11-03T02:40:05;6.40;99.90
11399;DHT22;5755;48.116;11.608;2022-11-03T02:42:36;6.40;99.90
11399;DHT22;5755;48.116;11.608;2022-11-03T02:45:08;6.40;99.90
11399;DHT22;5755;48.116;11.608;2022-11-03T02:47:36;6.40;99.90
11399;DHT22;5755;48.116;11.608;2022-11-03T02:50:05;6.40;99.90
11399;DHT22;5755;48.116;11.608;2022-11-03T02:52:37;6.30;99.90
11399;DHT22;5755;48.116;11.608;2022-11-03T02:55:10;6.20;99.90
11399;DHT22;5755;48.116;11.608;2022-11-03T02:57:43;6.20;99.90
11399;DHT22;5755;48.116;11.608;2022-11-03T03:00:12;6.10;99.90
11399;DHT22;5755;48.116;11.608;2022-11-03T03:02:48;6.10;99.90
11399;DHT22;5755;48.116;11.608;2022-11-03T03:05:17;6.10;99.90
11399;DHT22;5755;48.116;11.608;2022-11-03T03:07:46;6.10;99.90
11399;DHT22;5755;48.116;11.608;2022-11-03T03:10:16;6.20;99.90
11399;DHT22;5755;48.116;11.608;2022-11-03T03:12:48;6.20;99.90
11399;DHT22;5755;48.116;11.608;2022-11-03T03:15:17;6.20;99.90
11399;DHT22;5755;48.116;11.608;2022-11-03T03:17:50;6.20;99.90
11399;DHT22;5755;48.116;11.608;2022-11-03T03:20:22;6.20;99.90
11399;DHT22;5755;48.116;11.608;2022-11-03T03:22:54;6.00;99.90
11399;DHT22;5755;48.116;11.608;2022-11-03T03:25:25;6.00;99.90
11399;DHT22;5755;48.116;11.608;2022-11-03T03:28:03;5.90;99.90
11399;DHT22;5755;48.116;11.608;2022-11-03T03:30:32;5.80;99.90
11399;DHT22;5755;48.116;11.608;2022-11-03T03:33:03;5.80;99.90
11399;DHT22;5755;48.116;11.608;2022-11-03T03:35:32;5.80;99.90
11399;DHT22;5755;48.116;11.608;2022-11-03T03:38:03;5.80;99.90
11399;DHT22;5755;48.116;11.608;2022-11-03T03:40:35;5.70;99.90
11399;DHT22;5755;48.116;11.608;2022-11-03T03:43:06;5.70;99.90
11399;DHT22;5755;48.116;11.608;2022-11-03T03:45:35;5.70;99.90
11399;DHT22;5755;48.116;11.608;2022-11-03T03:48:03;5.60;99.90
11399;DHT22;5755;48.116;11.608;2022-11-03T03:50:34;5.60;99.90
11399;DHT22;5755;48.116;11.608;2022-11-03T03:53:05;5.60;99.90
11399;DHT22;5755;48.116;11.608;2022-11-03T03:55:34;5.60;99.90
11399;DHT22;5755;48.116;11.608;2022-11-03T03:58:01;5.60;99.90
11399;DHT22;5755;48.116;11.608;2022-11-03T04:00:30;5.50;99.90
11399;DHT22;5755;48.116;11.608;2022-11-03T04:02:57;5.50;99.90
11399;DHT22;5755;48.116;11.608;2022-11-03T04:05:24;5.50;99.90
11399;DHT22;5755;48.116;11.608;2022-11-03T04:07:51;5.40;99.90
11399;DHT22;5755;48.116;11.608;2022-11-03T04:10:20;5.40;99.90
11399;DHT22;5755;48.116;11.608;2022-11-03T04:12:47;5.40;99.90
11399;DHT22;5755;48.116;11.608;2022-11-03T04:15:33;5.50;99.90
11399;DHT22;5755;48.116;11.608;2022-11-03T04:18:19;5.50;99.90
11399;DHT22;5755;48.116;11.608;2022-11-03T04:21:04;5.50;99.90
11399;DHT22;5755;48.116;11.608;2022-11-03T04:23:58;5.50;99.90
11399;DHT22;5755;48.116;11.608;2022-11-03T04:26:26;5.50;99.90
11399;DHT22;5755;48.116;11.608;2022-11-03T04:28:54;5.50;99.90
11399;DHT22;5755;48.116;11.608;2022-11-03T04:31:27;5.40;99.90
11399;DHT22;5755;48.116;11.608;2022-11-03T04:33:56;5.40;99.90
11399;DHT22;5755;48.116;11.608;2022-11-03T04:36:24;5.50;99.90
11399;DHT22;5755;48.116;11.608;2022-11-03T04:38:52;5.50;99.90
11399;DHT22;5755;48.116;11.608;2022-11-03T04:41:20;5.40;99.90
11399;DHT22;5755;48.116;11.608;2022-11-03T04:43:49;5.40;99.90
11399;DHT22;5755;48.116;11.608;2022-11-03T04:46:19;5.30;99.90
11399;DHT22;5755;48.116;11.608;2022-11-03T04:48:51;5.30;99.90
11399;DHT22;5755;48.116;11.608;2022-11-03T04:51:22;5.30;99.90
11399;DHT22;5755;48.116;11.608;2022-11-03T04:53:53;5.40;99.90
11399;DHT22;5755;48.116;11.608;2022-11-03T04:56:22;5.40;99.90
11399;DHT22;5755;48.116;11.608;2022-11-03T04:58:52;5.30;99.90
11399;DHT22;5755;48.116;11.608;2022-11-03T05:01:21;5.30;99.90
11399;DHT22;5755;48.116;11.608;2022-11-03T05:03:52;5.40;99.90
11399;DHT22;5755;48.116;11.608;2022-11-03T05:06:21;5.30;99.90
11399;DHT22;5755;48.116;11.608;2022-11-03T05:08:51;5.30;99.90
11399;DHT22;5755;48.116;11.608;2022-11-03T05:11:23;5.40;99.90
11399;DHT22;5755;48.116;11.608;2022-11-03T05:13:52;5.50;99.90
11399;DHT22;5755;48.116;11.608;2022-11-03T05:16:19;5.50;99.90
11399;DHT22;5755;48.116;11.608;2022-11-03T05:18:48;5.50;99.90
11399;DHT22;5755;48.116;11.608;2022-11-03T05:21:19;5.50;99.90
11399;DHT22;5755;48.116;11.608;2022-11-03T05:23:50;5.60;99.90
11399;DHT22;5755;48.116;11.608;2022-11-03T05:26:21;5.80;99.90
11399;DHT22;5755;48.116;11.608;2022-11-03T05:28:51;5.80;99.90
11399;DHT22;5755;48.116;11.608;2022-11-03T05:31:22;5.80;99.90
11399;DHT22;5755;48.116;11.608;2022-11-03T05:33:50;5.80;99.90
11399;DHT22;5755;48.116;11.608;2022-11-03T05:36:22;5.80;99.90
11399;DHT22;5755;48.116;11.608;2022-11-03T05:38:55;5.80;99.90
11399;DHT22;5755;48.116;11.608;2022-11-03T05:41:25;5.80;99.90
11399;DHT22;5755;48.116;11.608;2022-11-03T05:43:56;5.80;99.90
11399;DHT22;5755;48.116;11.608;2022-11-03T05:46:27;5.70;99.90
11399;DHT22;5755;48.116;11.608;2022-11-03T05:48:54;5.80;99.90
11399;DHT22;5755;48.116;11.608;2022-11-03T05:51:26;5.90;99.90
11399;DHT22;5755;48.116;11.608;2022-11-03T05:53:56;6.00;99.90
11399;DHT22;5755;48.116;11.608;2022-11-03T05:56:24;6.00;99.90
11399;DHT22;5755;48.116;11.608;2022-11-03T05:58:54;6.00;99.90
11399;DHT22;5755;48.116;11.608;2022-11-03T06:01:24;6.00;99.90
11399;DHT22;5755;48.116;11.608;2022-11-03T06:03:54;6.00;99.90
11399;DHT22;5755;48.116;11.608;2022-11-03T06:06:26;6.00;99.90
11399;DHT22;5755;48.116;11.608;2022-11-03T06:08:55;6.00;99.90
11399;DHT22;5755;48.116;11.608;2022-11-03T06:11:26;6.10;99.90
11399;DHT22;5755;48.116;11.608;2022-11-03T06:13:55;6.20;99.90
11399;DHT22;5755;48.116;11.608;2022-11-03T06:16:38;6.20;99.90
11399;DHT22;5755;48.116;11.608;2022-11-03T06:19:18;6.20;99.90
11399;DHT22;5755;48.116;11.608;2022-11-03T06:21:48;6.20;99.90
11399;DHT22;5755;48.116;11.608;2022-11-03T06:24:17;6.20;99.90
11399;DHT22;5755;48.116;11.608;2022-11-03T06:26:45;6.30;99.90
11399;DHT22;5755;48.116;11.608;2022-11-03T06:29:15;6.30;99.90
11399;DHT22;5755;48.116;11.608;2022-11-03T06:31:45;6.20;99.90
11399;DHT22;5755;48.116;11.608;2022-11-03T06:34:37;6.10;99.90
11399;DHT22;5755;48.116;11.608;2022-11-03T06:37:15;6.10;99.90
11399;DHT22;5755;48.116;11.608;2022-11-03T06:39:44;6.20;99.90
11399;DHT22;5755;48.116;11.608;2022-11-03T06:42:12;6.20;99.90
11399;DHT22;5755;48.116;11.608;2022-11-03T06:44:41;6.30;99.90
11399;DHT22;5755;48.116;11.608;2022-11-03T06:47:22;6.30;99.90
11399;DHT22;5755;48.116;11.608;2022-11-03T06:49:51;6.30;99.90
11399;DHT22;5755;48.116;11.608;2022-11-03T06:52:38;6.30;99.90
11399;DHT22;5755;48.116;11.608;2022-11-03T06:55:24;6.40;99.90
11399;DHT22;5755;48.116;11.608;2022-11-03T06:57:54;6.40;99.90
11399;DHT22;5755;48.116;11.608;2022-11-03T07:00:24;6.30;99.90
11399;DHT22;5755;48.116;11.608;2022-11-03T07:02:56;6.30;99.90
11399;DHT22;5755;48.116;11.608;2022-11-03T07:05:26;6.40;99.90
11399;DHT22;5755;48.116;11.608;2022-11-03T07:07:56;6.50;99.90
11399;DHT22;5755;48.116;11.608;2022-11-03T07:10:25;6.60;99.90
11399;DHT22;5755;48.116;11.608;2022-11-03T07:12:54;6.80;99.90
11399;DHT22;5755;48.116;11.608;2022-11-03T07:15:27;6.80;99.90
11399;DHT22;5755;48.116;11.608;2022-11-03T07:17:57;6.80;99.90
11399;DHT22;5755;48.116;11.608;2022-11-03T07:20:28;7.00;99.90
11399;DHT22;5755;48.116;11.608;2022-11-03T07:22:59;6.80;99.70
11399;DHT22;5755;48.116;11.608;2022-11-03T07:25:31;6.80;99.90
11399;DHT22;5755;48.116;11.608;2022-11-03T07:28:00;6.70;99.90
11399;DHT22;5755;48.116;11.608;2022-11-03T07:30:32;6.60;99.90
11399;DHT22;5755;48.116;11.608;2022-11-03T07:33:13;6.50;99.90
11399;DHT22;5755;48.116;11.608;2022-11-03T07:35:43;6.70;99.90
11399;DHT22;5755;48.116;11.608;2022-11-03T07:38:13;6.90;99.90
11399;DHT22;5755;48.116;11.608;2022-11-03T07:40:41;6.90;99.90
11399;DHT22;5755;48.116;11.608;2022-11-03T07:43:13;7.00;99.90
11399;DHT22;5755;48.116;11.608;2022-11-03T07:45:42;7.10;99.90
11399;DHT22;5755;48.116;11.608;2022-11-03T07:48:23;7.10;99.90
11399;DHT22;5755;48.116;11.608;2022-11-03T07:50:52;7.30;99.90
11399;DHT22;5755;48.116;11.608;2022-11-03T07:53:33;7.40;99.50
11399;DHT22;5755;48.116;11.608;2022-11-03T07:56:01;7.50;98.90
11399;DHT22;5755;48.116;11.608;2022-11-03T07:58:36;7.50;98.80
11399;DHT22;5755;48.116;11.608;2022-11-03T08:01:20;7.60;99.00
11399;DHT22;5755;48.116;11.608;2022-11-03T08:03:48;7.80;98.70
11399;DHT22;5755;48.116;11.608;2022-11-03T08:06:15;7.70;98.50
11399;DHT22;5755;48.116;11.608;2022-11-03T08:08:48;7.80;99.10
11399;DHT22;5755;48.116;11.608;2022-11-03T08:11:15;8.00;99.10
11399;DHT22;5755;48.116;11.608;2022-11-03T08:13:42;8.30;98.90
11399;DHT22;5755;48.116;11.608;2022-11-03T08:16:09;8.50;98.40
11399;DHT22;5755;48.116;11.608;2022-11-03T08:18:36;8.70;97.50
11399;DHT22;5755;48.116;11.608;2022-11-03T08:21:03;8.60;97.50
11399;DHT22;5755;48.116;11.608;2022-11-03T08:23:30;8.60;97.70
11399;DHT22;5755;48.116;11.608;2022-11-03T08:26:06;8.60;97.80
11399;DHT22;5755;48.116;11.608;2022-11-03T08:28:40;8.80;98.50
11399;DHT22;5755;48.116;11.608;2022-11-03T08:34:29;9.10;98.60
11399;DHT22;5755;48.116;11.608;2022-11-03T08:37:04;9.80;96.40
11399;DHT22;5755;48.116;11.608;2022-11-03T08:39:35;10.50;95.90
11399;DHT22;5755;48.116;11.608;2022-11-03T08:42:03;10.90;93.80
11399;DHT22;5755;48.116;11.608;2022-11-03T08:44:40;11.60;93.00
11399;DHT22;5755;48.116;11.608;2022-11-03T08:47:07;12.90;86.10
11399;DHT22;5755;48.116;11.608;2022-11-03T08:49:34;12.90;81.90
11399;DHT22;5755;48.116;11.608;2022-11-03T08:52:01;13.30;78.90
11399;DHT22;5755;48.116;11.608;2022-11-03T08:54:28;13.60;76.30
11399;DHT22;5755;48.116;11.608;2022-11-03T08:56:55;14.40;72.00
11399;DHT22;5755;48.116;11.608;2022-11-03T08:59:24;15.10;59.80
11399;DHT22;5755;48.116;11.608;2022-11-03T09:01:50;15.50;58.10
11399;DHT22;5755;48.116;11.608;2022-11-03T09:04:17;16.10;48.60
11399;DHT22;5755;48.116;11.608;2022-11-03T09:06:45;16.50;47.40
11399;DHT22;5755;48.116;11.608;2022-11-03T09:09:11;17.00;42.30
11399;DHT22;5755;48.116;11.608;2022-11-03T09:11:38;17.20;38.00
11399;DHT22;5755;48.116;11.608;2022-11-03T09:14:05;17.70;35.20
11399;DHT22;5755;48.116;11.608;2022-11-03T09:16:33;18.30;34.80
11399;DHT22;5755;48.116;11.608;2022-11-03T09:19:00;19.10;31.30
11399;DHT22;5755;48.116;11.608;2022-11-03T09:21:27;19.30;29.70
11399;DHT22;5755;48.116;11.608;2022-11-03T09:23:54;18.80;29.60
11399;DHT22;5755;48.116;11.608;2022-11-03T09:26:24;18.40;33.10
11399;DHT22;5755;48.116;11.608;2022-11-03T09:28:53;19.50;29.80
11399;DHT22;5755;48.116;11.608;2022-11-03T09:31:22;20.00;26.40
11399;DHT22;5755;48.116;11.608;2022-11-03T09:33:54;19.60;26.40
11399;DHT22;5755;48.116;11.608;2022-11-03T09:36:22;19.90;25.40
11399;DHT22;5755;48.116;11.608;2022-11-03T09:38:49;19.70;25.70
11399;DHT22;5755;48.116;11.608;2022-11-03T09:41:16;19.70;26.10
11399;DHT22;5755;48.116;11.608;2022-11-03T09:43:43;20.60;23.80
11399;DHT22;5755;48.116;11.608;2022-11-03T09:46:11;20.50;23.80
11399;DHT22;5755;48.116;11.608;2022-11-03T09:48:38;19.90;25.00
11399;DHT22;5755;48.116;11.608;2022-11-03T09:51:08;19.50;25.50
11399;DHT22;5755;48.116;11.608;2022-11-03T09:53:36;19.00;27.70
11399;DHT22;5755;48.116;11.608;2022-11-03T09:56:03;18.30;30.60
11399;DHT22;5755;48.116;11.608;2022-11-03T09:58:32;17.80;30.20
11399;DHT22;5755;48.116;11.608;2022-11-03T10:00:59;17.80;30.20
11399;DHT22;5755;48.116;11.608;2022-11-03T10:03:27;18.30;30.70
11399;DHT22;5755;48.116;11.608;2022-11-03T10:05:54;19.00;27.70
11399;DHT22;5755;48.116;11.608;2022-11-03T10:08:25;19.00;26.60
11399;DHT22;5755;48.116;11.608;2022-11-03T10:10:59;19.60;25.30
11399;DHT22;5755;48.116;11.608;2022-11-03T10:13:29;19.40;26.50
11399;DHT22;5755;48.116;11.608;2022-11-03T10:15:56;19.30;26.60
11399;DHT22;5755;48.116;11.608;2022-11-03T10:18:26;19.60;24.80
11399;DHT22;5755;48.116;11.608;2022-11-03T10:20:53;19.10;27.40
11399;DHT22;5755;48.116;11.608;2022-11-03T10:23:36;18.50;28.80
11399;DHT22;5755;48.116;11.608;2022-11-03T10:26:08;18.20;29.80
11399;DHT22;5755;48.116;11.608;2022-11-03T10:28:35;18.00;30.40
11399;DHT22;5755;48.116;11.608;2022-11-03T10:31:04;17.50;31.00
11399;DHT22;5755;48.116;11.608;2022-11-03T10:33:34;17.60;30.50
11399;DHT22;5755;48.116;11.608;2022-11-03T10:36:03;18.00;30.40
11399;DHT22;5755;48.116;11.608;2022-11-03T10:38:31;18.10;30.50
11399;DHT22;5755;48.116;11.608;2022-11-03T10:41:14;17.80;30.20
11399;DHT22;5755;48.116;11.608;2022-11-03T10:43:43;18.00;30.40
11399;DHT22;5755;48.116;11.608;2022-11-03T10:46:14;17.80;30.20
11399;DHT22;5755;48.116;11.608;2022-11-03T10:48:41;18.30;30.60
11399;DHT22;5755;48.116;11.608;2022-11-03T10:51:12;18.40;29.50
11399;DHT22;5755;48.116;11.608;2022-11-03T10:53:40;17.90;31.40
11399;DHT22;5755;48.116;11.608;2022-11-03T10:56:08;17.20;29.70
11399;DHT22;5755;48.116;11.608;2022-11-03T10:58:42;16.90;32.90
11399;DHT22;5755;48.116;11.608;2022-11-03T11:01:10;16.60;35.80
11399;DHT22;5755;48.116;11.608;2022-11-03T11:03:41;16.60;36.20
11399;DHT22;5755;48.116;11.608;2022-11-03T11:06:19;16.50;38.70
11399;DHT22;5755;48.116;11.608;2022-11-03T11:08:48;16.50;37.40
11399;DHT22;5755;48.116;11.608;2022-11-03T11:11:16;16.20;41.00
11399;DHT22;5755;48.116;11.608;2022-11-03T11:14:18;15.90;47.90
11399;DHT22;5755;48.116;11.608;2022-11-03T11:16:47;15.70;52.00
11399;DHT22;5755;48.116;11.608;2022-11-03T11:22:30;15.60;57.80
11399;DHT22;5755;48.116;11.608;2022-11-03T11:24:59;15.50;57.20
11399;DHT22;5755;48.116;11.608;2022-11-03T11:27:54;15.50;64.10
11399;DHT22;5755;48.116;11.608;2022-11-03T11:33:32;15.20;64.70
11399;DHT22;5755;48.116;11.608;2022-11-03T11:36:23;15.20;64.50
11399;DHT22;5755;48.116;11.608;2022-11-03T11:39:11;15.30;65.00
11399;DHT22;5755;48.116;11.608;2022-11-03T11:44:55;15.30;64.40
11399;DHT22;5755;48.116;11.608;2022-11-03T11:47:41;15.50;66.00
11399;DHT22;5755;48.116;11.608;2022-11-03T11:50:26;15.50;64.70
11399;DHT22;5755;48.116;11.608;2022-11-03T11:53:01;15.60;62.90
11399;DHT22;5755;48.116;11.608;2022-11-03T11:55:33;15.60;63.30
11399;DHT22;5755;48.116;11.608;2022-11-03T11:58:02;15.40;66.60
11399;DHT22;5755;48.116;11.608;2022-11-03T12:00:31;15.20;67.00
11399;DHT22;5755;48.116;11.608;2022-11-03T12:03:00;15.10;70.30
11399;DHT22;5755;48.116;11.608;2022-11-03T12:05:31;15.00;71.60
11399;DHT22;5755;48.116;11.608;2022-11-03T12:07:59;15.10;72.40
11399;DHT22;5755;48.116;11.608;2022-11-03T12:10:28;15.10;72.00
11399;DHT22;5755;48.116;11.608;2022-11-03T12:16:31;15.00;74.00
11399;DHT22;5755;48.116;11.608;2022-11-03T12:19:37;14.90;75.00
11399;DHT22;5755;48.116;11.608;2022-11-03T12:22:39;15.10;72.00
11399;DHT22;5755;48.116;11.608;2022-11-03T12:25:32;15.20;69.10
11399;DHT22;5755;48.116;11.608;2022-11-03T12:28:05;15.30;68.20
11399;DHT22;5755;48.116;11.608;2022-11-03T12:30:32;15.40;69.50
11399;DHT22;5755;48.116;11.608;2022-11-03T12:33:05;15.50;66.30
11399;DHT22;5755;48.116;11.608;2022-11-03T12:35:35;15.40;68.60
11399;DHT22;5755;48.116;11.608;2022-11-03T12:38:12;15.40;66.50
11399;DHT22;5755;48.116;11.608;2022-11-03T12:40:41;15.30;66.80
11399;DHT22;5755;48.116;11.608;2022-11-03T12:43:09;15.10;69.60
11399;DHT22;5755;48.116;11.608;2022-11-03T12:45:47;15.00;74.60
11399;DHT22;5755;48.116;11.608;2022-11-03T12:48:17;14.80;76.20
11399;DHT22;5755;48.116;11.608;2022-11-03T12:50:59;14.70;75.90
11399;DHT22;5755;48.116;11.608;2022-11-03T12:53:27;14.60;77.00
11399;DHT22;5755;48.116;11.608;2022-11-03T12:56:16;14.50;78.60
11399;DHT22;5755;48.116;11.608;2022-11-03T12:58:57;14.60;78.70
11399;DHT22;5755;48.116;11.608;2022-11-03T13:01:29;14.60;77.10
11399;DHT22;5755;48.116;11.608;2022-11-03T13:04:11;14.60;77.70
11399;DHT22;5755;48.116;11.608;2022-11-03T13:06:38;14.50;79.60
11399;DHT22;5755;48.116;11.608;2022-11-03T13:09:06;14.60;78.60
11399;DHT22;5755;48.116;11.608;2022-11-03T13:11:33;14.60;78.70
11399;DHT22;5755;48.116;11.608;2022-11-03T13:14:13;14.60;78.70
11399;DHT22;5755;48.116;11.608;2022-11-03T13:16:40;14.60;79.30
11399;DHT22;5755;48.116;11.608;2022-11-03T13:19:11;14.70;78.60
11399;DHT22;5755;48.116;11.608;2022-11-03T13:21:38;14.70;80.10
11399;DHT22;5755;48.116;11.608;2022-11-03T13:24:07;14.70;79.40
11399;DHT22;5755;48.116;11.608;2022-11-03T13:26:33;14.60;80.40
11399;DHT22;5755;48.116;11.608;2022-11-03T13:29:00;14.50;81.80
11399;DHT22;5755;48.116;11.608;2022-11-03T13:31:27;14.40;82.80
11399;DHT22;5755;48.116;11.608;2022-11-03T13:33:54;14.40;83.30
11399;DHT22;5755;48.116;11.608;2022-11-03T13:36:21;14.40;83.90
11399;DHT22;5755;48.116;11.608;2022-11-03T13:38:53;14.30;83.90
11399;DHT22;5755;48.116;11.608;2022-11-03T13:41:21;14.30;83.90
11399;DHT22;5755;48.116;11.608;2022-11-03T13:43:48;14.20;84.50
11399;DHT22;5755;48.116;11.608;2022-11-03T13:46:15;14.00;86.50
11399;DHT22;5755;48.116;11.608;2022-11-03T13:48:42;13.80;90.00
11399;DHT22;5755;48.116;11.608;2022-11-03T13:51:09;13.80;90.40
11399;DHT22;5755;48.116;11.608;2022-11-03T13:53:41;13.70;90.90
11399;DHT22;5755;48.116;11.608;2022-11-03T13:56:11;13.60;91.10
11399;DHT22;5755;48.116;11.608;2022-11-03T13:58:39;13.50;91.20
11399;DHT22;5755;48.116;11.608;2022-11-03T14:01:06;13.50;91.40
11399;DHT22;5755;48.116;11.608;2022-11-03T14:03:33;13.40;91.90
11399;DHT22;5755;48.116;11.608;2022-11-03T14:06:00;13.30;92.20
11399;DHT22;5755;48.116;11.608;2022-11-03T14:08:27;13.40;92.60
11399;DHT22;5755;48.116;11.608;2022-11-03T14:10:54;13.40;92.60
11399;DHT22;5755;48.116;11.608;2022-11-03T14:13:21;13.40;92.60
11399;DHT22;5755;48.116;11.608;2022-11-03T14:15:48;13.30;93.00
11399;DHT22;5755;48.116;11.608;2022-11-03T14:18:15;13.30;93.00
11399;DHT22;5755;48.116;11.608;2022-11-03T14:20:42;13.20;93.50
11399;DHT22;5755;48.116;11.608;2022-11-03T14:23:09;13.00;93.80
11399;DHT22;5755;48.116;11.608;2022-11-03T14:25:41;12.90;94.10
11399;DHT22;5755;48.116;11.608;2022-11-03T14:28:08;12.80;94.80
11399;DHT22;5755;48.116;11.608;2022-11-03T14:30:35;12.70;95.30
11399;DHT22;5755;48.116;11.608;2022-11-03T14:33:03;12.60;96.00
11399;DHT22;5755;48.116;11.608;2022-11-03T14:35:30;12.50;96.30
11399;DHT22;5755;48.116;11.608;2022-11-03T14:37:59;12.40;96.30
11399;DHT22;5755;48.116;11.608;2022-11-03T14:40:35;12.40;96.30
11399;DHT22;5755;48.116;11.608;2022-11-03T14:43:23;12.40;96.30
11399;DHT22;5755;48.116;11.608;2022-11-03T14:49:12;12.50;96.30
11399;DHT22;5755;48.116;11.608;2022-11-03T14:52:34;12.40;96.30
11399;DHT22;5755;48.116;11.608;2022-11-03T14:55:11;12.30;97.10
11399;DHT22;5755;48.116;11.608;2022-11-03T14:57:47;12.20;97.20
11399;DHT22;5755;48.116;11.608;2022-11-03T15:00:16;12.10;97.40
11399;DHT22;5755;48.116;11.608;2022-11-03T15:02:53;12.10;97.90
11399;DHT22;5755;48.116;11.608;2022-11-03T15:05:37;12.00;98.10
11399;DHT22;5755;48.116;11.608;2022-11-03T15:08:29;11.90;98.50
11399;DHT22;5755;48.116;11.608;2022-11-03T15:11:06;11.90;98.80
11399;DHT22;5755;48.116;11.608;2022-11-03T15:13:34;11.80;98.90
11399;DHT22;5755;48.116;11.608;2022-11-03T15:16:02;11.80;99.00
11399;DHT22;5755;48.116;11.608;2022-11-03T15:21:54;11.70;99.40
11399;DHT22;5755;48.116;11.608;2022-11-03T15:24:21;11.70;99.40
11399;DHT22;5755;48.116;11.608;2022-11-03T15:26:53;11.60;99.30
11399;DHT22;5755;48.116;11.608;2022-11-03T15:29:23;11.50;99.60
11399;DHT22;5755;48.116;11.608;2022-11-03T15:31:50;11.50;99.90
11399;DHT22;5755;48.116;11.608;2022-11-03T15:34:17;11.40;99.90
11399;DHT22;5755;48.116;11.608;2022-11-03T15:37:18;11.40;99.90
11399;DHT22;5755;48.116;11.608;2022-11-03T15:39:45;11.30;99.90
11399;DHT22;5755;48.116;11.608;2022-11-03T15:42:34;11.30;99.90
11399;DHT22;5755;48.116;11.608;2022-11-03T15:45:06;11.30;99.90
11399;DHT22;5755;48.116;11.608;2022-11-03T15:47:54;11.30;99.90
11399;DHT22;5755;48.116;11.608;2022-11-03T15:50:20;11.30;99.90
11399;DHT22;5755;48.116;11.608;2022-11-03T15:53:00;11.30;99.90
11399;DHT22;5755;48.116;11.608;2022-11-03T15:55:29;11.20;99.90
11399;DHT22;5755;48.116;11.608;2022-11-03T15:57:56;11.20;99.90
11399;DHT22;5755;48.116;11.608;2022-11-03T16:00:23;11.20;99.90
11399;DHT22;5755;48.116;11.608;2022-11-03T16:02:53;11.10;99.90
11399;DHT22;5755;48.116;11.608;2022-11-03T16:05:20;11.10;99.90
11399;DHT22;5755;48.116;11.608;2022-11-03T16:07:47;11.00;99.90
11399;DHT22;5755;48.116;11.608;2022-11-03T16:10:18;11.00;99.90
11399;DHT22;5755;48.116;11.608;2022-11-03T16:12:45;11.00;99.90
11399;DHT22;5755;48.116;11.608;2022-11-03T16:15:12;11.00;99.90
11399;DHT22;5755;48.116;11.608;2022-11-03T16:17:39;11.00;99.90
11399;DHT22;5755;48.116;11.608;2022-11-03T16:20:07;11.00;99.90
11399;DHT22;5755;48.116;11.608;2022-11-03T16:22:43;11.00;99.90
11399;DHT22;5755;48.116;11.608;2022-11-03T16:25:24;10.90;99.90
11399;DHT22;5755;48.116;11.608;2022-11-03T16:28:12;10.80;99.90
11399;DHT22;5755;48.116;11.608;2022-11-03T16:30:41;10.80;99.90
11399;DHT22;5755;48.116;11.608;2022-11-03T16:33:08;10.80;99.90